Terminal Aerodrome Forecast
Issued by NWS

Home | Current Version | Previous Version | Text Only | Print | Product List | Glossary On
Versions: 1 2 3 4 5 6 7 8 9 10 11 12 13
000
FTUS42 KTBW 251122
TAFLAL
TAF
KLAL 251122Z 2512/2612 00000KT P6SM SCT250
     FM251400 VRB04KT P6SM SCT025 SCT250
      TEMPO 2514/2516 BKN025
     FM251700 28005KT P6SM SCT035 SCT250
     FM251900 29006KT P6SM VCTS SCT040CB SCT250
     FM260000 29004KT P6SM FEW050 SCT250
     FM260600 00000KT P6SM SKC=

USA.gov is the U.S. government's official web portal to all federal, state and local government web resources and services.